Time;durP1;ratioP1;P1;durP2;ratioP2;P2;SDS_P1;SDS_P2;PMS_P1;PMS_P2;Temp;Humidity;BMP_temperature;BMP_pressure;BME280_temperature;BME280_humidity;BME280_pressure;Samples;Min_cycle;Max_cycle;Signal;HPM_P1;HPM_P2
2023/03/01 00:01:12;;;;;;;18.23;10.50;;;20.50;99.90;;;;;;5033619;28;20444;-55
2023/03/01 00:03:38;;;;;;;19.02;11.27;;;20.50;99.90;;;;;;5015707;28;20030;-54
2023/03/01 00:06:04;;;;;;;19.67;11.75;;;20.50;99.90;;;;;;5033715;28;20022;-54
2023/03/01 00:08:32;;;;;;;20.05;11.95;;;20.50;99.90;;;;;;5020838;28;20034;-53
2023/03/01 00:11:01;;;;;;;;;;;20.40;99.90;;;;;;5033301;28;20502;-54
2023/03/01 00:13:28;;;;;;;18.00;11.23;;;20.40;99.90;;;;;;5015527;28;19948;-54
2023/03/01 00:15:53;;;;;;;19.70;12.70;;;20.40;99.90;;;;;;5014879;28;20503;-55
2023/03/01 00:18:19;;;;;;;23.63;13.45;;;20.40;99.90;;;;;;5013543;28;20037;-55
2023/03/01 00:20:56;;;;;;;21.05;12.38;;;20.40;99.90;;;;;;5026811;28;20014;-55
2023/03/01 00:23:23;;;;;;;19.05;12.35;;;20.30;99.90;;;;;;5013754;28;20029;-55
2023/03/01 00:25:49;;;;;;;20.25;12.95;;;20.30;99.90;;;;;;5027887;28;20502;-55
2023/03/01 00:28:15;;;;;;;23.55;13.60;;;20.30;99.90;;;;;;5015355;28;20022;-55
2023/03/01 00:30:41;;;;;;;21.27;12.95;;;20.30;99.90;;;;;;5024761;28;20357;-55
2023/03/01 00:33:07;;;;;;;20.92;12.68;;;20.30;99.90;;;;;;5028200;28;20075;-55
2023/03/01 00:35:34;;;;;;;22.30;14.18;;;20.30;99.90;;;;;;5015625;28;20029;-55
2023/03/01 00:38:00;;;;;;;20.70;13.25;;;20.30;99.90;;;;;;5032945;28;20054;-55
2023/03/01 00:40:27;;;;;;;21.08;14.13;;;20.30;99.90;;;;;;5032737;28;20018;-55
2023/03/01 00:42:53;;;;;;;21.02;12.98;;;20.20;99.90;;;;;;5015177;28;20022;-55
2023/03/01 00:45:19;;;;;;;20.83;13.60;;;20.20;99.90;;;;;;5032711;28;20041;-54
2023/03/01 00:47:45;;;;;;;24.75;14.82;;;20.20;99.90;;;;;;5033095;28;20056;-55
2023/03/01 00:50:11;;;;;;;24.33;15.07;;;20.20;99.90;;;;;;5014981;28;20075;-55
2023/03/01 00:52:37;;;;;;;19.52;12.85;;;20.20;99.90;;;;;;5032841;28;20025;-55
2023/03/01 00:55:04;;;;;;;21.20;13.23;;;20.20;99.90;;;;;;5029708;28;20100;-55
2023/03/01 00:57:30;;;;;;;22.47;14.30;;;20.20;99.90;;;;;;5012965;28;20080;-55
2023/03/01 00:59:56;;;;;;;21.83;14.20;;;20.20;99.90;;;;;;5029770;28;20641;-55
2023/03/01 01:02:22;;;;;;;23.92;14.35;;;20.20;99.90;;;;;;5032511;28;20025;-54
2023/03/01 01:04:49;;;;;;;23.63;13.50;;;20.10;99.90;;;;;;5032549;28;20021;-55
2023/03/01 01:07:15;;;;;;;25.52;14.07;;;20.10;99.90;;;;;;5032383;28;20025;-53
2023/03/01 01:09:41;;;;;;;22.10;13.75;;;20.10;99.90;;;;;;5032248;28;20041;-55
2023/03/01 01:12:07;;;;;;;21.92;13.57;;;20.10;99.90;;;;;;5032354;28;20455;-55
2023/03/01 01:14:33;;;;;;;23.15;14.60;;;20.10;99.90;;;;;;5032392;28;20115;-54
2023/03/01 01:16:59;;;;;;;22.85;14.15;;;20.10;99.90;;;;;;5032219;28;20091;-55
2023/03/01 01:19:25;;;;;;;22.92;14.82;;;20.10;99.90;;;;;;5032043;28;20026;-55
2023/03/01 01:21:51;;;;;;;21.30;13.80;;;20.00;99.90;;;;;;5032138;28;20425;-54
2023/03/01 01:24:17;;;;;;;26.45;15.38;;;20.00;99.90;;;;;;5032416;28;20030;-54
2023/03/01 01:26:44;;;;;;;23.40;14.90;;;20.00;99.90;;;;;;5031973;28;20017;-55
2023/03/01 01:29:10;;;;;;;20.55;13.45;;;20.00;99.90;;;;;;5014658;28;20033;-52
2023/03/01 01:31:38;;;;;;;23.25;15.35;;;20.00;99.90;;;;;;5029376;28;20029;-52
2023/03/01 01:34:06;;;;;;;25.75;15.73;;;20.00;99.90;;;;;;5021685;28;20497;-53
2023/03/01 01:36:33;;;;;;;22.75;15.20;;;20.00;99.90;;;;;;4997434;28;20033;-53
2023/03/01 01:38:59;;;;;;;22.70;14.40;;;20.00;99.90;;;;;;5014332;28;20561;-52
2023/03/01 01:41:26;;;;;;;24.45;14.15;;;19.90;99.90;;;;;;5016946;28;20069;-53
2023/03/01 01:44:11;;;;;;;23.88;14.52;;;19.90;99.90;;;;;;5032062;28;20036;-53
2023/03/01 01:46:43;;;;;;;20.50;13.45;;;19.90;99.90;;;;;;5029042;28;20034;-53
2023/03/01 01:49:12;;;;;;;24.23;14.20;;;19.90;99.90;;;;;;5020964;28;20045;-53
2023/03/01 01:51:42;;;;;;;21.33;13.80;;;19.90;99.90;;;;;;5018696;28;20021;-53
2023/03/01 01:54:18;;;;;;;22.05;14.10;;;19.90;99.90;;;;;;5021925;28;20037;-53
2023/03/01 01:56:52;;;;;;;23.80;13.82;;;19.90;99.90;;;;;;5028319;28;20018;-52
2023/03/01 01:59:17;;;;;;;21.92;13.18;;;19.90;99.90;;;;;;5032326;28;20025;-52
2023/03/01 02:01:44;;;;;;;21.40;13.57;;;19.90;99.90;;;;;;5031723;28;20029;-52
2023/03/01 02:04:09;;;;;;;22.33;13.52;;;19.80;99.90;;;;;;5022023;28;20033;-52
2023/03/01 02:06:46;;;;;;;20.52;12.70;;;19.80;99.90;;;;;;5015308;28;20018;-53
2023/03/01 02:09:15;;;;;;;20.30;12.60;;;19.80;99.90;;;;;;5022048;28;20456;-53
2023/03/01 02:11:43;;;;;;;20.17;12.43;;;19.80;99.90;;;;;;5011949;28;20037;-54
2023/03/01 02:14:08;;;;;;;;;;;19.80;99.90;;;;;;5012417;28;20030;-54
2023/03/01 02:16:35;;;;;;;19.80;11.82;;;19.80;99.90;;;;;;5016051;28;19916;-54
2023/03/01 02:19:04;;;;;;;19.83;12.45;;;19.80;99.90;;;;;;5031665;28;20017;-54
2023/03/01 02:21:36;;;;;;;18.48;11.65;;;19.80;99.90;;;;;;5027067;28;20026;-55
2023/03/01 02:24:17;;;;;;;17.83;11.23;;;19.70;99.90;;;;;;5011980;28;20014;-54
2023/03/01 02:26:49;;;;;;;17.67;10.70;;;19.70;99.90;;;;;;5011599;28;20018;-52
2023/03/01 02:29:15;;;;;;;18.33;11.25;;;19.70;99.90;;;;;;5011830;28;20041;-53
2023/03/01 02:31:41;;;;;;;18.15;11.70;;;19.70;99.90;;;;;;5030516;28;20366;-53
2023/03/01 02:34:19;;;;;;;18.05;11.18;;;19.70;99.90;;;;;;5031356;28;20341;-53
2023/03/01 02:36:52;;;;;;;17.45;10.85;;;19.70;99.90;;;;;;5031413;28;20037;-53
2023/03/01 02:39:23;;;;;;;16.52;10.32;;;19.70;99.90;;;;;;5029849;28;20021;-53
2023/03/01 02:41:54;;;;;;;16.02;10.52;;;19.70;99.90;;;;;;5011639;28;20057;-52
2023/03/01 02:44:21;;;;;;;17.20;10.50;;;19.70;99.90;;;;;;5028060;28;20542;-52
2023/03/01 02:46:51;;;;;;;15.38;10.57;;;19.60;99.90;;;;;;5031747;28;20049;-52
2023/03/01 02:49:26;;;;;;;18.17;10.73;;;19.60;99.90;;;;;;5034752;28;20041;-52
2023/03/01 02:52:10;;;;;;;18.55;10.68;;;19.60;99.90;;;;;;5035346;28;20171;-52
2023/03/01 02:55:00;;;;;;;15.38;9.75;;;19.60;99.90;;;;;;5027786;28;20032;-53
2023/03/01 02:57:28;;;;;;;17.08;10.70;;;19.60;99.90;;;;;;5016958;28;20427;-53
2023/03/01 02:59:56;;;;;;;16.15;10.40;;;19.60;99.90;;;;;;5051028;23;20092;-65
2023/03/01 03:02:37;;;;;;;16.98;10.50;;;19.60;99.90;;;;;;5017236;28;20038;-64
2023/03/01 03:05:11;;;;;;;20.35;11.15;;;19.60;99.90;;;;;;5025569;28;20021;-65
2023/03/01 03:07:41;;;;;;;16.90;10.30;;;19.60;99.90;;;;;;5032141;28;20045;-65
2023/03/01 03:10:11;;;;;;;17.40;10.38;;;19.60;99.90;;;;;;5034330;28;20108;-63
2023/03/01 03:12:37;;;;;;;14.98;9.43;;;19.50;99.90;;;;;;5031161;28;20021;-65
2023/03/01 03:15:08;;;;;;;15.50;9.30;;;19.60;99.90;;;;;;5014982;28;20452;-66
2023/03/01 03:17:36;;;;;;;15.63;10.00;;;19.50;99.90;;;;;;5029583;28;20097;-67
2023/03/01 03:20:04;;;;;;;16.38;10.27;;;19.50;99.90;;;;;;5015005;28;20088;-66
2023/03/01 03:22:31;;;;;;;16.50;10.60;;;19.50;99.90;;;;;;5031003;28;20049;-67
2023/03/01 03:24:56;;;;;;;16.55;9.48;;;19.50;99.90;;;;;;5034623;28;20024;-66
2023/03/01 03:27:22;;;;;;;16.15;9.45;;;19.50;99.90;;;;;;5018517;28;20026;-66
2023/03/01 03:29:48;;;;;;;16.95;9.93;;;19.50;99.90;;;;;;5030605;28;20104;-66
2023/03/01 03:32:13;;;;;;;14.60;9.60;;;19.50;99.90;;;;;;5034232;28;20033;-65
2023/03/01 03:34:39;;;;;;;14.55;9.77;;;19.50;99.90;;;;;;5018013;28;20026;-64
2023/03/01 03:38:01;;;;;;;18.55;9.50;;;19.50;99.90;;;;;;5026112;28;20022;-64
2023/03/01 03:39:54;;;;;;;16.10;9.68;;;19.50;99.90;;;;;;5031526;28;20170;-64
2023/03/01 03:42:21;;;;;;;15.10;9.02;;;19.40;99.90;;;;;;5016336;28;20025;-65
2023/03/01 03:44:48;;;;;;;14.68;8.85;;;19.50;99.90;;;;;;5017660;28;20049;-65
2023/03/01 03:47:13;;;;;;;14.65;9.10;;;19.40;99.90;;;;;;4996724;28;20450;-66
2023/03/01 03:49:39;;;;;;;14.13;9.07;;;19.40;99.90;;;;;;5014049;28;20125;-66
2023/03/01 03:52:13;;;;;;;15.00;9.10;;;19.40;99.90;;;;;;5004819;28;20109;-65
2023/03/01 03:54:40;;;;;;;13.13;8.70;;;19.40;99.90;;;;;;5033807;28;20411;-63
2023/03/01 03:57:06;;;;;;;15.52;8.20;;;19.40;99.90;;;;;;5025825;28;20021;-65
2023/03/01 03:59:32;;;;;;;13.75;8.23;;;19.40;99.90;;;;;;5045733;23;20659;-47
2023/03/01 04:01:58;;;;;;;14.52;8.18;;;19.40;99.90;;;;;;5033866;28;20076;-48
2023/03/01 04:04:24;;;;;;;16.00;8.82;;;19.40;99.90;;;;;;5033419;28;20052;-47
2023/03/01 04:06:49;;;;;;;14.93;8.52;;;19.40;99.90;;;;;;5053617;28;20025;-48
2023/03/01 04:09:15;;;;;;;16.63;9.50;;;19.40;99.90;;;;;;5041727;28;20041;-47
2023/03/01 04:11:41;;;;;;;12.50;8.43;;;19.30;99.90;;;;;;5046483;28;20017;-47
2023/03/01 04:14:07;;;;;;;13.93;9.13;;;19.40;99.90;;;;;;5033295;28;20067;-48
2023/03/01 04:16:32;;;;;;;13.48;8.73;;;19.30;99.90;;;;;;5015677;28;20021;-47
2023/03/01 04:19:00;;;;;;;14.65;8.68;;;19.30;99.90;;;;;;5043281;28;20039;-48
2023/03/01 04:21:26;;;;;;;15.25;8.60;;;19.30;99.90;;;;;;5036510;28;20387;-48
2023/03/01 04:23:52;;;;;;;11.55;7.88;;;19.30;99.90;;;;;;5042140;28;20029;-48
2023/03/01 04:26:19;;;;;;;14.00;8.45;;;19.30;99.90;;;;;;5035113;28;20474;-48
2023/03/01 04:28:47;;;;;;;13.65;8.40;;;19.30;99.90;;;;;;5045744;28;20025;-48
2023/03/01 04:31:17;;;;;;;13.40;8.18;;;19.30;99.90;;;;;;5033158;28;20484;-49
2023/03/01 04:33:43;;;;;;;12.68;7.88;;;19.30;99.90;;;;;;5033272;28;20025;-50
2023/03/01 04:36:11;;;;;;;11.70;7.47;;;19.30;99.90;;;;;;5046500;28;20056;-50
2023/03/01 04:38:37;;;;;;;;;;;19.30;99.90;;;;;;5046251;28;20018;-48
2023/03/01 04:41:10;;;;;;;13.15;8.07;;;19.30;99.90;;;;;;5032756;28;19966;-48
2023/03/01 04:43:37;;;;;;;14.07;8.77;;;19.30;99.90;;;;;;5039359;28;20074;-48
2023/03/01 04:46:09;;;;;;;14.05;7.78;;;19.20;99.90;;;;;;5048466;28;20028;-47
2023/03/01 04:48:36;;;;;;;14.38;7.70;;;19.20;99.90;;;;;;5051731;28;20380;-48
2023/03/01 04:51:03;;;;;;;14.18;8.02;;;19.20;99.90;;;;;;5052597;28;20021;-48
2023/03/01 04:53:30;;;;;;;14.17;8.40;;;19.20;99.90;;;;;;5052920;28;20029;-49
2023/03/01 04:55:56;;;;;;;15.35;8.32;;;19.20;99.90;;;;;;5047795;28;20485;-51
2023/03/01 04:58:23;;;;;;;17.42;9.05;;;19.20;99.90;;;;;;5052244;28;20140;-49
2023/03/01 05:00:49;;;;;;;13.27;7.88;;;19.20;99.90;;;;;;5054864;23;20633;-62
2023/03/01 05:03:17;;;;;;;13.98;7.70;;;19.20;99.90;;;;;;5019021;28;20029;-63
2023/03/01 05:05:45;;;;;;;13.05;8.55;;;19.20;99.90;;;;;;5001590;28;20022;-66
2023/03/01 05:08:17;;;;;;;19.17;9.25;;;19.20;99.90;;;;;;5023078;28;20099;-64
2023/03/01 05:10:53;;;;;;;16.33;8.27;;;19.20;99.90;;;;;;5020821;28;20029;-64
2023/03/01 05:13:20;;;;;;;14.05;8.75;;;19.20;99.90;;;;;;5018615;28;20026;-65
2023/03/01 05:15:57;;;;;;;16.88;8.80;;;19.20;99.90;;;;;;5009174;28;20494;-66
2023/03/01 05:18:28;;;;;;;12.95;8.02;;;19.20;99.90;;;;;;5006306;28;20048;-66
2023/03/01 05:20:58;;;;;;;15.80;9.38;;;19.20;99.90;;;;;;5021713;28;20018;-62
2023/03/01 05:23:24;;;;;;;15.90;9.00;;;19.10;99.90;;;;;;5021477;28;20083;-63
2023/03/01 05:25:52;;;;;;;16.15;8.82;;;19.10;99.90;;;;;;5026717;28;20029;-66
2023/03/01 05:28:19;;;;;;;17.15;9.07;;;19.10;99.90;;;;;;5021105;28;20018;-66
2023/03/01 05:30:45;;;;;;;14.37;8.13;;;19.10;99.90;;;;;;5022523;28;20041;-66
2023/03/01 05:33:14;;;;;;;15.98;8.65;;;19.10;99.90;;;;;;5011817;28;20080;-66
2023/03/01 05:35:43;;;;;;;14.02;8.52;;;19.10;99.90;;;;;;5024807;28;20026;-64
2023/03/01 05:38:12;;;;;;;14.15;7.53;;;19.10;99.90;;;;;;5017619;28;20026;-64
2023/03/01 05:40:39;;;;;;;11.85;7.93;;;19.10;99.90;;;;;;5005593;28;20430;-64
2023/03/01 05:43:05;;;;;;;17.10;8.85;;;19.10;99.90;;;;;;5011655;28;20108;-64
2023/03/01 05:45:34;;;;;;;14.95;8.95;;;19.10;99.90;;;;;;5023659;28;20558;-64
2023/03/01 05:48:00;;;;;;;15.75;8.52;;;19.10;99.90;;;;;;5020763;28;20026;-65
2023/03/01 05:50:28;;;;;;;14.75;8.98;;;19.10;99.90;;;;;;5016378;28;20033;-63
2023/03/01 05:53:05;;;;;;;15.32;8.30;;;19.10;99.90;;;;;;5019600;28;20022;-65
2023/03/01 05:55:31;;;;;;;13.93;8.70;;;19.10;99.90;;;;;;5017372;28;20030;-64
2023/03/01 05:58:02;;;;;;;16.00;8.48;;;19.10;99.90;;;;;;5014749;28;20017;-65
2023/03/01 06:00:29;;;;;;;15.63;9.27;;;19.10;99.90;;;;;;4999562;28;20072;-63
2023/03/01 06:02:56;;;;;;;14.70;8.15;;;19.10;99.90;;;;;;5019618;28;20029;-63
2023/03/01 06:05:22;;;;;;;13.13;7.90;;;19.00;99.90;;;;;;5018609;28;20079;-63
2023/03/01 06:07:49;;;;;;;15.70;8.85;;;19.10;99.90;;;;;;5014229;28;20033;-63
2023/03/01 06:10:15;;;;;;;15.48;8.65;;;19.10;99.90;;;;;;5020899;28;20108;-64
2023/03/01 06:12:43;;;;;;;14.18;8.10;;;19.00;99.90;;;;;;5014795;28;20038;-64
2023/03/01 06:15:11;;;;;;;15.50;8.32;;;19.00;99.90;;;;;;5011054;28;20044;-67
2023/03/01 06:17:39;;;;;;;16.63;8.13;;;19.00;99.90;;;;;;5021595;28;20022;-66
2023/03/01 06:20:09;;;;;;;16.02;6.88;;;19.00;99.90;;;;;;5016447;28;20653;-67
2023/03/01 06:22:35;;;;;;;13.65;7.00;;;19.00;99.90;;;;;;5020055;28;20052;-67
2023/03/01 06:25:01;;;;;;;16.65;7.68;;;19.00;99.90;;;;;;5022999;28;20022;-66
2023/03/01 06:27:27;;;;;;;13.27;7.57;;;19.00;99.90;;;;;;5023201;28;20380;-64
2023/03/01 06:29:53;;;;;;;15.25;7.82;;;19.00;99.90;;;;;;5020425;28;20045;-67
2023/03/01 06:32:18;;;;;;;13.38;7.68;;;19.00;99.90;;;;;;5029103;28;20040;-66
2023/03/01 06:34:44;;;;;;;14.20;8.45;;;19.00;99.90;;;;;;5013501;28;20479;-70
2023/03/01 06:37:10;;;;;;;12.98;7.57;;;19.00;99.90;;;;;;5018787;28;20578;-65
2023/03/01 06:39:36;;;;;;;15.70;7.90;;;19.00;99.90;;;;;;5019924;28;20104;-64
2023/03/01 06:42:01;;;;;;;16.25;7.38;;;19.00;99.90;;;;;;5014595;28;20091;-65
2023/03/01 06:44:28;;;;;;;13.90;7.63;;;19.00;99.90;;;;;;5015727;28;20496;-69
2023/03/01 06:46:54;;;;;;;13.48;7.20;;;18.90;99.90;;;;;;5027585;28;20049;-64
2023/03/01 06:49:20;;;;;;;15.15;8.30;;;19.00;99.90;;;;;;5011467;28;20112;-70
2023/03/01 06:51:46;;;;;;;13.65;6.68;;;18.90;99.90;;;;;;5016691;28;20032;-63
2023/03/01 06:54:12;;;;;;;9.52;6.05;;;18.90;99.90;;;;;;5016783;28;20060;-61
2023/03/01 06:56:38;;;;;;;13.10;7.05;;;18.90;99.90;;;;;;5015104;28;20022;-68
2023/03/01 06:59:03;;;;;;;12.13;6.55;;;18.90;99.90;;;;;;5029330;28;20435;-66
2023/03/01 07:01:30;;;;;;;12.75;6.60;;;18.90;99.90;;;;;;5017207;28;20048;-64
2023/03/01 07:03:56;;;;;;;12.95;6.28;;;18.90;99.90;;;;;;5034883;28;20079;-67
2023/03/01 07:06:23;;;;;;;11.80;6.47;;;18.90;99.90;;;;;;5034768;28;20021;-68
2023/03/01 07:08:48;;;;;;;13.00;6.97;;;18.90;99.90;;;;;;5034837;28;20117;-68
2023/03/01 07:11:15;;;;;;;15.38;7.00;;;18.90;99.90;;;;;;5016716;28;20053;-65
2023/03/01 07:13:40;;;;;;;15.32;7.28;;;18.90;99.90;;;;;;5023427;28;20022;-67
2023/03/01 07:16:07;;;;;;;12.77;6.63;;;18.90;99.90;;;;;;5017830;28;20033;-66
2023/03/01 07:18:33;;;;;;;12.95;7.00;;;18.90;99.90;;;;;;5034324;28;20021;-67
2023/03/01 07:21:03;;;;;;;12.18;7.35;;;18.90;99.90;;;;;;5016829;28;20568;-67
2023/03/01 07:23:29;;;;;;;14.02;6.65;;;18.90;99.90;;;;;;5035051;28;20064;-64
2023/03/01 07:25:55;;;;;;;14.27;7.40;;;18.90;99.90;;;;;;5034151;28;20069;-67
2023/03/01 07:28:23;;;;;;;14.07;7.60;;;18.90;99.90;;;;;;5034262;28;20017;-68
2023/03/01 07:30:48;;;;;;;12.98;7.65;;;18.90;99.90;;;;;;5034243;28;20077;-66
2023/03/01 07:33:14;;;;;;;14.43;7.15;;;18.90;99.90;;;;;;5029102;28;20058;-64
2023/03/01 07:35:40;;;;;;;12.00;7.55;;;18.90;99.90;;;;;;5025142;28;20025;-63
2023/03/01 07:38:06;;;;;;;13.80;7.57;;;18.90;99.90;;;;;;5020940;28;20080;-63
2023/03/01 07:40:32;;;;;;;11.95;7.25;;;18.90;99.90;;;;;;5034162;28;20017;-63
2023/03/01 07:42:58;;;;;;;12.05;7.15;;;19.00;99.90;;;;;;5034073;28;20030;-67
2023/03/01 07:45:25;;;;;;;12.77;7.50;;;18.90;99.90;;;;;;5006776;28;20022;-66
2023/03/01 07:47:52;;;;;;;11.75;7.57;;;19.00;99.90;;;;;;5028710;28;20029;-65
2023/03/01 07:50:18;;;;;;;12.13;7.30;;;19.00;99.90;;;;;;5025586;28;20037;-69
2023/03/01 07:52:47;;;;;;;10.60;6.63;;;19.00;99.90;;;;;;5014288;28;20057;-66
2023/03/01 07:55:14;;;;;;;11.52;7.07;;;19.00;99.90;;;;;;5026450;28;20033;-65
2023/03/01 07:57:40;;;;;;;9.20;6.60;;;19.10;99.90;;;;;;5014026;28;20144;-66
2023/03/01 08:00:07;;;;;;;9.48;6.05;;;19.10;99.90;;;;;;5019650;28;20124;-66
2023/03/01 08:02:33;;;;;;;12.40;7.28;;;19.10;99.90;;;;;;5015833;28;20024;-65
2023/03/01 08:04:58;;;;;;;16.38;7.30;;;19.10;99.90;;;;;;5033828;28;20021;-69
2023/03/01 08:07:24;;;;;;;11.32;6.25;;;19.10;99.90;;;;;;5033753;28;20112;-66
2023/03/01 08:09:50;;;;;;;13.98;6.57;;;19.10;99.90;;;;;;5033509;28;20137;-66
2023/03/01 08:12:16;;;;;;;11.55;6.65;;;19.10;99.90;;;;;;5033478;28;20024;-66
2023/03/01 08:14:43;;;;;;;12.13;7.13;;;19.20;99.90;;;;;;5017304;28;20018;-67
2023/03/01 08:17:09;;;;;;;13.13;7.22;;;19.10;99.90;;;;;;5023496;28;20064;-67
2023/03/01 08:19:35;;;;;;;11.32;7.25;;;19.20;99.90;;;;;;5031594;28;20026;-67
2023/03/01 08:22:03;;;;;;;12.60;7.32;;;19.20;99.90;;;;;;5021873;28;20087;-68
2023/03/01 08:24:29;;;;;;;12.77;7.07;;;19.20;99.90;;;;;;5015571;28;20420;-67
2023/03/01 08:26:55;;;;;;;11.05;6.97;;;19.20;99.90;;;;;;5032976;28;20055;-67
2023/03/01 08:29:21;;;;;;;13.10;6.93;;;19.20;99.90;;;;;;5020196;28;20038;-67
2023/03/01 08:31:48;;;;;;;10.13;6.55;;;19.30;99.90;;;;;;5013217;28;20018;-67
2023/03/01 08:34:17;;;;;;;13.35;6.35;;;19.30;99.90;;;;;;5013169;28;20054;-67
2023/03/01 08:36:45;;;;;;;12.13;7.00;;;19.30;99.90;;;;;;5032937;28;20079;-66
2023/03/01 08:39:14;;;;;;;11.60;7.05;;;19.30;99.90;;;;;;5032866;28;20025;-66
2023/03/01 08:41:41;;;;;;;12.13;6.53;;;19.30;99.90;;;;;;5032880;28;20121;-66
2023/03/01 08:44:07;;;;;;;11.98;6.80;;;19.30;99.90;;;;;;5015070;28;20475;-66
2023/03/01 08:46:40;;;;;;;11.95;6.97;;;19.30;99.90;;;;;;5032787;28;20029;-66
2023/03/01 08:49:13;;;;;;;10.63;6.25;;;19.40;99.90;;;;;;4985987;28;20205;-66
2023/03/01 08:51:39;;;;;;;11.27;6.45;;;19.40;99.90;;;;;;5003034;28;20017;-67
2023/03/01 08:54:06;;;;;;;11.07;6.88;;;19.40;99.90;;;;;;5032720;28;20018;-68
2023/03/01 08:56:33;;;;;;;11.25;6.63;;;19.40;99.90;;;;;;5032718;28;20030;-65
2023/03/01 08:58:58;;;;;;;12.90;8.07;;;19.40;99.90;;;;;;5019359;28;20042;-66
2023/03/01 09:01:25;;;;;;;11.05;6.55;;;19.40;99.90;;;;;;5032400;28;20052;-64
2023/03/01 09:03:50;;;;;;;11.68;6.60;;;19.40;99.90;;;;;;5032212;28;20367;-64
2023/03/01 09:06:16;;;;;;;10.65;6.47;;;19.50;99.90;;;;;;5026708;28;20029;-66
2023/03/01 09:08:45;;;;;;;10.25;6.65;;;19.50;99.90;;;;;;5012769;28;20039;-65
2023/03/01 09:11:13;;;;;;;10.63;5.72;;;19.50;99.90;;;;;;5032001;28;20475;-65
2023/03/01 09:13:39;;;;;;;11.15;7.22;;;19.50;99.90;;;;;;5032569;28;20471;-66
2023/03/01 09:16:07;;;;;;;12.10;7.72;;;19.50;99.90;;;;;;5001697;28;20025;-65
2023/03/01 09:18:33;;;;;;;;;;;19.60;99.90;;;;;;5021952;28;20029;-63
2023/03/01 09:21:10;;;;;;;13.40;7.30;;;19.60;99.90;;;;;;5030102;28;19905;-63
2023/03/01 09:23:45;;;;;;;11.63;7.15;;;19.60;99.90;;;;;;5032434;28;20017;-64
2023/03/01 09:26:22;;;;;;;12.00;7.45;;;19.60;99.90;;;;;;5031753;28;20061;-63
2023/03/01 09:28:50;;;;;;;10.90;7.90;;;19.60;99.90;;;;;;5016081;28;20021;-64
2023/03/01 09:31:17;;;;;;;12.40;7.38;;;19.70;99.90;;;;;;4997854;28;20293;-66
2023/03/01 09:33:47;;;;;;;12.05;8.32;;;19.70;99.90;;;;;;5031937;28;20352;-64
2023/03/01 09:36:16;;;;;;;10.90;6.80;;;19.70;99.90;;;;;;5018621;28;20025;-64
2023/03/01 09:38:43;;;;;;;13.88;7.82;;;19.70;99.90;;;;;;5032020;28;20021;-64
2023/03/01 09:41:30;;;;;;;12.85;7.72;;;19.70;99.90;;;;;;5031920;28;20028;-68
2023/03/01 09:44:13;;;;;;;12.05;6.97;;;19.70;99.90;;;;;;5020985;28;20013;-66
2023/03/01 09:46:44;;;;;;;13.35;7.25;;;19.70;99.90;;;;;;5031696;28;20371;-64
2023/03/01 09:49:17;;;;;;;13.27;8.00;;;19.80;99.90;;;;;;5020482;28;20116;-65
2023/03/01 09:52:08;;;;;;;12.57;8.10;;;19.80;99.90;;;;;;5012070;28;20064;-66
2023/03/01 09:54:34;;;;;;;12.65;7.78;;;19.80;99.90;;;;;;4990805;28;20030;-66
2023/03/01 09:57:26;;;;;;;12.90;7.90;;;19.80;99.90;;;;;;5014139;28;20022;-66
2023/03/01 10:00:03;;;;;;;17.13;8.38;;;19.90;99.90;;;;;;5001731;28;20483;-66
2023/03/01 10:02:52;;;;;;;14.75;8.63;;;19.90;99.90;;;;;;5037952;28;20076;-66
2023/03/01 10:05:47;;;;;;;12.68;7.78;;;19.90;99.90;;;;;;5025996;28;20030;-68
2023/03/01 10:08:25;;;;;;;13.10;8.18;;;19.90;99.90;;;;;;5023405;28;20022;-70
2023/03/01 10:10:53;;;;;;;13.27;7.82;;;20.00;99.90;;;;;;5026281;28;20044;-67
2023/03/01 10:13:36;;;;;;;14.38;7.88;;;20.00;99.90;;;;;;5036991;28;20037;-68
2023/03/01 10:16:18;;;;;;;11.70;7.90;;;20.10;99.90;;;;;;5038210;28;20028;-67
2023/03/01 10:18:47;;;;;;;13.40;7.57;;;20.10;99.90;;;;;;5026514;28;20045;-68
2023/03/01 10:21:18;;;;;;;11.32;8.23;;;20.20;99.90;;;;;;5038113;28;20533;-68
2023/03/01 10:23:45;;;;;;;12.75;8.73;;;20.20;99.90;;;;;;5038448;28;20099;-68
2023/03/01 10:26:38;;;;;;;12.23;7.60;;;20.20;99.90;;;;;;5038060;28;20024;-67
2023/03/01 10:29:10;;;;;;;11.50;7.50;;;20.30;99.90;;;;;;5038366;28;20026;-67
2023/03/01 10:31:43;;;;;;;16.25;8.43;;;20.30;99.90;;;;;;5038108;28;20483;-68
2023/03/01 10:34:20;;;;;;;12.02;7.70;;;20.30;99.90;;;;;;5038222;28;20065;-68
2023/03/01 10:36:52;;;;;;;11.30;7.20;;;20.40;99.90;;;;;;5032412;28;20033;-67
2023/03/01 10:39:24;;;;;;;10.60;6.95;;;20.50;99.90;;;;;;5018343;28;20029;-66
2023/03/01 10:41:58;;;;;;;11.60;6.57;;;20.50;99.90;;;;;;5018182;28;20056;-67
2023/03/01 10:44:47;;;;;;;12.73;7.63;;;20.50;99.90;;;;;;5018095;28;20049;-68
2023/03/01 10:47:25;;;;;;;10.48;6.40;;;20.60;99.90;;;;;;5037885;28;20036;-66
2023/03/01 10:50:02;;;;;;;10.60;6.85;;;20.60;99.90;;;;;;5037398;28;20488;-68
2023/03/01 10:52:35;;;;;;;12.15;6.80;;;20.60;99.90;;;;;;5026393;28;20025;-66
2023/03/01 10:55:23;;;;;;;9.32;6.05;;;20.70;99.90;;;;;;5032623;28;20021;-65
2023/03/01 10:57:50;;;;;;;10.35;6.72;;;20.70;99.90;;;;;;5018529;28;20030;-66
2023/03/01 11:00:22;;;;;;;9.98;6.07;;;20.80;99.90;;;;;;5037777;28;20124;-65
2023/03/01 11:03:09;;;;;;;13.73;6.50;;;20.80;99.90;;;;;;5037470;28;20033;-66
2023/03/01 11:05:35;;;;;;;;;;;20.80;99.90;;;;;;5038044;28;20027;-64
2023/03/01 11:08:03;;;;;;;11.40;6.22;;;20.90;99.90;;;;;;5035805;28;19905;-67
2023/03/01 11:10:28;;;;;;;;;;;20.90;99.90;;;;;;5015020;28;20038;-72
2023/03/01 11:13:16;;;;;;;19.75;10.48;;;20.90;99.90;;;;;;5029501;28;19911;-68
2023/03/01 11:15:43;;;;;;;17.73;10.23;;;20.90;99.90;;;;;;5025162;28;20168;-67
2023/03/01 11:18:23;;;;;;;19.27;10.85;;;21.00;99.90;;;;;;5017698;28;20025;-65
2023/03/01 11:20:53;;;;;;;18.15;10.57;;;21.00;99.90;;;;;;5034389;28;20140;-65
2023/03/01 11:23:19;;;;;;;15.30;9.52;;;21.00;99.90;;;;;;5017112;28;20018;-66
2023/03/01 11:26:05;;;;;;;16.33;10.07;;;21.00;99.90;;;;;;5007342;28;20025;-66
2023/03/01 11:28:32;;;;;;;15.30;8.52;;;21.00;99.90;;;;;;5034289;28;20482;-66
2023/03/01 11:31:13;;;;;;;16.45;9.18;;;21.00;99.90;;;;;;5034200;28;20091;-68
2023/03/01 11:33:59;;;;;;;18.60;9.20;;;21.10;99.90;;;;;;5034108;28;20018;-67
2023/03/01 11:36:37;;;;;;;18.58;9.82;;;21.10;99.90;;;;;;5018567;28;20030;-67
2023/03/01 11:39:31;;;;;;;16.45;9.40;;;21.10;99.90;;;;;;5007350;28;20547;-66
2023/03/01 11:42:17;;;;;;;14.50;9.18;;;21.10;99.90;;;;;;5027917;28;20018;-68
2023/03/01 11:44:44;;;;;;;16.35;9.32;;;21.20;99.90;;;;;;5029499;28;20080;-66
2023/03/01 11:47:31;;;;;;;16.02;9.35;;;21.20;99.90;;;;;;5025170;28;20041;-65
2023/03/01 11:50:10;;;;;;;15.17;8.17;;;21.20;99.90;;;;;;5027136;28;20033;-66
2023/03/01 11:53:00;;;;;;;15.75;8.90;;;21.20;99.90;;;;;;5008397;28;20270;-68
2023/03/01 11:56:01;;;;;;;16.48;9.27;;;21.30;99.90;;;;;;5033657;28;20483;-67
2023/03/01 11:58:57;;;;;;;16.20;9.35;;;21.30;99.90;;;;;;4991810;28;20480;-65
2023/03/01 12:01:52;;;;;;;16.93;10.07;;;21.30;99.90;;;;;;5029624;28;20082;-65
2023/03/01 12:04:38;;;;;;;18.05;10.50;;;21.30;99.90;;;;;;5015622;28;20079;-65
2023/03/01 12:07:09;;;;;;;16.88;10.02;;;21.40;99.90;;;;;;5033059;28;20033;-66
2023/03/01 12:10:10;;;;;;;17.33;11.27;;;21.40;99.90;;;;;;5033368;28;20033;-65
2023/03/01 12:13:13;;;;;;;16.08;9.55;;;21.40;99.90;;;;;;5002476;28;20065;-63
2023/03/01 12:16:28;;;;;;;16.60;10.23;;;21.40;99.90;;;;;;5023313;28;20021;-64
2023/03/01 12:19:21;;;;;;;17.55;10.18;;;21.40;99.90;;;;;;5028666;28;20040;-63
2023/03/01 12:21:53;;;;;;;17.33;10.48;;;21.50;99.90;;;;;;5027744;28;20022;-65
2023/03/01 12:24:46;;;;;;;19.13;11.13;;;21.50;99.90;;;;;;5013425;28;20049;-64
2023/03/01 12:27:36;;;;;;;19.13;11.43;;;21.50;99.90;;;;;;5023320;28;20077;-63
2023/03/01 12:30:16;;;;;;;17.70;10.82;;;21.50;99.90;;;;;;5033337;28;20078;-64
2023/03/01 12:33:03;;;;;;;17.25;11.45;;;21.50;99.90;;;;;;5032897;28;20455;-64
2023/03/01 12:35:43;;;;;;;18.75;12.07;;;21.60;99.90;;;;;;5033163;28;20029;-64
2023/03/01 12:38:34;;;;;;;18.95;12.77;;;21.60;99.90;;;;;;5032949;28;20041;-64
2023/03/01 12:41:24;;;;;;;17.92;11.57;;;21.60;99.90;;;;;;5033111;28;20024;-62
2023/03/01 12:44:21;;;;;;;18.33;11.20;;;21.60;99.90;;;;;;5032843;28;20024;-62
2023/03/01 12:47:00;;;;;;;18.43;11.50;;;21.60;99.90;;;;;;5032729;28;20459;-63
2023/03/01 12:49:31;;;;;;;17.63;11.70;;;21.70;99.90;;;;;;5021603;28;20572;-63
2023/03/01 12:52:09;;;;;;;17.10;10.40;;;21.70;99.90;;;;;;5030952;28;20048;-64
2023/03/01 12:54:36;;;;;;;20.15;12.48;;;21.70;99.90;;;;;;5032665;28;20045;-64